Haugen — LK8048 — position and weather

sailwx.info

Track history (hours):
 
Tides and Currents Weather Stations Pressure Air Temp Water Temp Dewpoint Dewpoint Depression Visibility Wind Speed Wind Dir Waves Ship Positions

Haugen

Last reported at 2017-Oct-20 13:30 UTC. Time now 2017-Oct-20 14:34 UTC.
Position N 69°30' E 017°29'.

Length 15 m.

Type: Fishing. MMSI: 257176640.

Date/timePositionNaut miles runAvg speedWind from/ knotsBaromVisibWave heightAir tempDewpointWater temp
2017-Oct-20 13:30N 69°30' E 017°29'0 0.0
2017-Oct-20 12:59N 69°30' E 017°29'0 0.0
2017-Oct-20 12:30N 69°30' E 017°29'0 0.0
2017-Oct-20 12:00N 69°30' E 017°29'0 0.0
2017-Oct-20 11:30N 69°30' E 017°29'0 0.0
2017-Oct-20 11:00N 69°30' E 017°29'0 0.0
2017-Oct-20 10:30N 69°30' E 017°29'0 0.0
2017-Oct-20 09:59N 69°30' E 017°29'0 0.0
2017-Oct-20 09:29N 69°30' E 017°29'0 0.0
2017-Oct-20 09:00N 69°30' E 017°29'0 0.0
2017-Oct-20 08:29N 69°30' E 017°29'0 0.0
2017-Oct-20 08:00N 69°30' E 017°29'0 0.1
2017-Oct-20 07:29N 69°30' E 017°29'0 0.4
2017-Oct-20 07:00N 69°30' E 017°30'3 5.6
2017-Oct-20 06:30N 69°32' E 017°27'3 6.6
2017-Oct-20 06:00N 69°35' E 017°22'3 6.5
2017-Oct-20 05:30N 69°38' E 017°18'0 0.5
2017-Oct-20 05:00N 69°38' E 017°18'1 2.2
2017-Oct-20 04:29N 69°37' E 017°18'0 0.9
2017-Oct-20 04:00N 69°38' E 017°17'1 2.7
2017-Oct-20 03:30N 69°36' E 017°19'3 6.9
2017-Oct-20 03:00N 69°34' E 017°26'3 6.8
2017-Oct-20 02:30N 69°31' E 017°30'1 2.4
2017-Oct-20 02:00N 69°30' E 017°29'0 0.0
2017-Oct-20 01:30N 69°30' E 017°29'0 0.0
2017-Oct-20 01:00N 69°30' E 017°29'0 0.0
2017-Oct-20 00:30N 69°30' E 017°29'0 0.0
2017-Oct-19 23:59N 69°30' E 017°29'0 0.0
2017-Oct-19 23:30N 69°30' E 017°29'0 0.0
2017-Oct-19 23:00N 69°30' E 017°29'0 0.0
2017-Oct-19 22:30N 69°30' E 017°29'0 0.0
2017-Oct-19 22:00N 69°30' E 017°29'0 0.0
2017-Oct-19 21:30N 69°30' E 017°29'0 0.0
2017-Oct-19 21:00N 69°30' E 017°29'0 0.0
2017-Oct-19 20:30N 69°30' E 017°29'0 0.0
2017-Oct-19 20:00N 69°30' E 017°29'0 0.0
2017-Oct-19 19:29N 69°30' E 017°29'0 0.0
2017-Oct-19 19:00N 69°30' E 017°29'0 0.0
2017-Oct-19 18:30N 69°30' E 017°29'0 0.0
2017-Oct-19 18:00N 69°30' E 017°29'0 0.0
2017-Oct-19 17:30N 69°30' E 017°29'0 0.0
2017-Oct-19 17:00N 69°30' E 017°29'0 0.0
2017-Oct-19 16:30N 69°30' E 017°29'0 0.0
2017-Oct-19 16:00N 69°30' E 017°29'0 0.0
2017-Oct-19 15:30N 69°30' E 017°29'1 1.4
2017-Oct-19 15:00N 69°30' E 017°30'3 6.3
2017-Oct-19 14:30N 69°33' E 017°27'3 6.2
2017-Oct-19 13:59N 69°36' E 017°24'0 0.4
2017-Oct-19 13:30N 69°36' E 017°23'0 0.8
2017-Oct-19 13:00N 69°36' E 017°23'1 1.1
2017-Oct-19 12:30N 69°36' E 017°24'2 3.2
2017-Oct-19 11:59N 69°37' E 017°26'1 2.1
2017-Oct-19 11:30N 69°37' E 017°23'3 6.3
2017-Oct-19 11:00N 69°37' E 017°15'1 1.3
2017-Oct-19 10:30N 69°36' E 017°13'0 0.7
2017-Oct-19 10:00N 69°36' E 017°13'2 4.0
2017-Oct-19 09:30N 69°38' E 017°16'0 0.8
2017-Oct-19 09:00N 69°37' E 017°15'0 0.9
2017-Oct-19 08:30N 69°37' E 017°14'2 4.2
2017-Oct-19 08:00N 69°39' E 017°17'0 0.4
2017-Oct-19 07:30N 69°39' E 017°17'1 1.0
2017-Oct-19 07:00N 69°38' E 017°16'0 1.0
2017-Oct-19 06:30N 69°38' E 017°16'1 2.1
2017-Oct-19 06:00N 69°38' E 017°19'3 5.5
2017-Oct-19 05:30N 69°36' E 017°23'3 5.3
2017-Oct-19 05:00N 69°33' E 017°26'2 4.9
2017-Oct-19 04:29N 69°31' E 017°30'2 3.4
2017-Oct-19 03:59N 69°30' E 017°29'0 0.0
2017-Oct-19 03:30N 69°30' E 017°29'0 0.0
2017-Oct-19 02:59N 69°30' E 017°29'0 0.0
2017-Oct-19 02:30N 69°30' E 017°29'0 0.0
2017-Oct-19 02:00N 69°30' E 017°29'0 0.0
2017-Oct-19 01:29N 69°30' E 017°29'0 0.0
2017-Oct-19 00:58N 69°30' E 017°29'0 0.0
2017-Oct-19 00:30N 69°30' E 017°29'0 0.0
2017-Oct-18 23:59N 69°30' E 017°29'0 0.0
2017-Oct-18 23:30N 69°30' E 017°29'0 0.0
2017-Oct-18 23:00N 69°30' E 017°29'0 0.0
2017-Oct-18 22:30N 69°30' E 017°29'0 0.0
2017-Oct-18 21:59N 69°30' E 017°29'0 0.0
2017-Oct-18 21:30N 69°30' E 017°29'0 0.0
2017-Oct-18 21:00N 69°30' E 017°29'0 0.0
2017-Oct-18 20:30N 69°30' E 017°29'0 0.0
2017-Oct-18 20:00N 69°30' E 017°29'0 0.0
2017-Oct-18 19:29N 69°30' E 017°29'0 0.0
2017-Oct-18 19:00N 69°30' E 017°29'0 0.0
2017-Oct-18 18:30N 69°30' E 017°29'0 0.0
2017-Oct-18 17:59N 69°30' E 017°29'0 0.0
2017-Oct-18 17:30N 69°30' E 017°29'0 0.0
2017-Oct-18 16:59N 69°30' E 017°29'0 0.0
2017-Oct-18 16:29N 69°30' E 017°29'0 0.0
2017-Oct-18 15:59N 69°30' E 017°29'0 0.0
2017-Oct-18 15:30N 69°30' E 017°29'0 0.0
2017-Oct-18 15:00N 69°30' E 017°29'0 0.0
2017-Oct-18 14:00N 69°30' E 017°29'0 0.0
2017-Oct-18 13:29N 69°30' E 017°29'0 0.4
2017-Oct-18 13:00N 69°29' E 017°29'0 0.0
2017-Oct-18 12:30N 69°29' E 017°29'0 0.0
2017-Oct-18 12:00N 69°29' E 017°29'0 0.0
2017-Oct-18 11:29N 69°29' E 017°29'0 0.0
2017-Oct-18 11:00N 69°29' E 017°29'0 0.0
2017-Oct-18 10:30N 69°29' E 017°29'0 0.0
2017-Oct-18 09:59N 69°29' E 017°29'0 0.0
2017-Oct-18 09:30N 69°29' E 017°29'0 0.0
2017-Oct-18 09:00N 69°29' E 017°29'0 0.0
2017-Oct-18 08:30N 69°29' E 017°29'0 0.0
2017-Oct-18 08:00N 69°29' E 017°29'0 0.0
2017-Oct-18 07:30N 69°29' E 017°29'0 0.0
2017-Oct-18 07:00N 69°29' E 017°29'0 0.0
2017-Oct-18 06:30N 69°29' E 017°29'0 0.0
2017-Oct-18 06:00N 69°29' E 017°29'0 0.0
2017-Oct-18 05:30N 69°29' E 017°29'0 0.0
2017-Oct-18 05:00N 69°29' E 017°29'0 0.0
2017-Oct-18 04:30N 69°29' E 017°29'0 0.0
2017-Oct-18 04:00N 69°29' E 017°29'0 0.0
2017-Oct-18 03:30N 69°29' E 017°29'0 0.0
2017-Oct-18 02:59N 69°29' E 017°29'0 0.0
2017-Oct-18 02:30N 69°29' E 017°29'0 0.0
2017-Oct-18 02:00N 69°29' E 017°29'0 0.0
2017-Oct-18 01:30N 69°29' E 017°29'0 0.0
2017-Oct-18 01:00N 69°29' E 017°29'0 0.0
2017-Oct-18 00:30N 69°29' E 017°29'0 0.0
2017-Oct-18 00:00N 69°29' E 017°29'0 0.0
2017-Oct-17 23:30N 69°29' E 017°29'0 0.0
2017-Oct-17 23:00N 69°29' E 017°29'0 0.0
2017-Oct-17 22:30N 69°29' E 017°29'0 0.0
2017-Oct-17 22:00N 69°29' E 017°29'0 0.0
2017-Oct-17 21:30N 69°29' E 017°29'0 0.0
2017-Oct-17 21:00N 69°29' E 017°29'0 0.0
2017-Oct-17 20:30N 69°29' E 017°29'0 0.0
2017-Oct-17 20:00N 69°29' E 017°29'0 0.0
2017-Oct-17 19:29N 69°29' E 017°29'0 0.0
2017-Oct-17 19:00N 69°29' E 017°29'0 0.0
2017-Oct-17 18:30N 69°29' E 017°29'0 0.0
2017-Oct-17 18:00N 69°29' E 017°29'0 0.0
2017-Oct-17 17:30N 69°29' E 017°29'0 0.0
2017-Oct-17 17:00N 69°29' E 017°29'0 0.0
2017-Oct-17 16:30N 69°29' E 017°29'0 0.0
2017-Oct-17 16:00N 69°29' E 017°29'0 0.0
2017-Oct-17 15:30N 69°29' E 017°29'0 0.0
2017-Oct-17 15:00N 69°29' E 017°29'0 0.0
2017-Oct-17 14:30N 69°29' E 017°29'0 0.0
2017-Oct-17 14:00N 69°29' E 017°29'0 0.0
2017-Oct-17 13:30N 69°29' E 017°29'0 0.0
2017-Oct-17 13:00N 69°29' E 017°29'0 0.0
2017-Oct-17 12:30N 69°29' E 017°29'0 0.0
2017-Oct-17 12:00N 69°29' E 017°29'0 0.0
2017-Oct-17 11:29N 69°29' E 017°29'0 0.0
2017-Oct-17 10:59N 69°29' E 017°29'0 0.0
2017-Oct-17 10:30N 69°29' E 017°29'0 0.0
2017-Oct-17 10:00N 69°29' E 017°29'0 0.0
2017-Oct-17 09:30N 69°29' E 017°29'0 0.0
2017-Oct-17 09:00N 69°29' E 017°29'0 0.0
2017-Oct-17 08:30N 69°29' E 017°29'0 0.0
2017-Oct-17 08:00N 69°29' E 017°29'0 0.4
2017-Oct-17 07:30N 69°30' E 017°29'0 0.5
2017-Oct-17 07:00N 69°30' E 017°30'0 0.0
2017-Oct-17 06:30N 69°30' E 017°30'0 0.0
2017-Oct-17 06:00N 69°30' E 017°30'2 3.9
2017-Oct-17 05:30N 69°31' E 017°33'0 0.6
2017-Oct-17 05:00N 69°31' E 017°33'1 2.2
2017-Oct-17 04:30N 69°30' E 017°30'1 1.7
2017-Oct-17 04:00N 69°30' E 017°29'0 0.0
2017-Oct-17 03:30N 69°30' E 017°29'0 0.0
2017-Oct-17 03:00N 69°30' E 017°29'0 0.0
2017-Oct-17 02:29N 69°30' E 017°29'0 0.0
2017-Oct-17 02:00N 69°30' E 017°29'0 0.0
2017-Oct-17 01:29N 69°30' E 017°29'0 0.0
2017-Oct-17 01:00N 69°30' E 017°29'0 0.0
2017-Oct-17 00:30N 69°30' E 017°29'0 0.0
2017-Oct-17 00:00N 69°30' E 017°29'0 0.0
2017-Oct-16 23:30N 69°30' E 017°29'0 0.0
2017-Oct-16 22:59N 69°30' E 017°29'0 0.0
2017-Oct-16 22:28N 69°30' E 017°29'0 0.0
2017-Oct-16 21:59N 69°30' E 017°29'0 0.0
2017-Oct-16 21:29N 69°30' E 017°29'0 0.0
2017-Oct-16 21:00N 69°30' E 017°29'0 0.0
2017-Oct-16 20:30N 69°30' E 017°29'0 0.0
2017-Oct-16 19:59N 69°30' E 017°29'0 0.0
2017-Oct-16 19:30N 69°30' E 017°29'0 0.0
2017-Oct-16 19:00N 69°30' E 017°29'0 0.0
2017-Oct-16 18:30N 69°30' E 017°29'0 0.0
2017-Oct-16 18:00N 69°30' E 017°29'0 0.0
2017-Oct-16 17:30N 69°30' E 017°29'0 0.0
2017-Oct-16 16:58N 69°30' E 017°29'0 0.6
2017-Oct-16 16:30N 69°30' E 017°30'2 4.7
2017-Oct-16 16:00N 69°32' E 017°28'3 7.0
2017-Oct-16 15:30N 69°35' E 017°25'1 1.6
2017-Oct-16 15:00N 69°36' E 017°23'0 0.9
2017-Oct-16 14:30N 69°36' E 017°24'3 2.7
2017-Oct-16 13:30N 69°38' E 017°19'1 1.5
2017-Oct-16 13:00N 69°39' E 017°18'1 1.5
2017-Oct-16 12:30N 69°38' E 017°16'0 0.9
2017-Oct-16 12:00N 69°39' E 017°17'1 2.6
2017-Oct-16 11:30N 69°38' E 017°16'1 2.5
2017-Oct-16 11:00N 69°37' E 017°14'3 6.8
2017-Oct-16 10:30N 69°35' E 017°21'3 6.7
2017-Oct-16 10:00N 69°32' E 017°28'2 4.9
2017-Oct-16 09:30N 69°30' E 017°29'0 0.0
2017-Oct-16 08:59N 69°30' E 017°29'0 0.0
2017-Oct-16 08:30N 69°30' E 017°29'0 0.0
2017-Oct-16 08:00N 69°30' E 017°29'0 0.0
2017-Oct-16 07:30N 69°30' E 017°29'0 0.0
2017-Oct-16 06:58N 69°30' E 017°29'0 0.0
2017-Oct-16 06:30N 69°30' E 017°29'0 0.0
2017-Oct-16 06:00N 69°30' E 017°29'0 0.0
2017-Oct-16 05:25N 69°30' E 017°29'0 0.0
2017-Oct-16 04:56N 69°30' E 017°29'0 0.0
2017-Oct-16 04:26N 69°30' E 017°29'0 0.0
2017-Oct-16 04:00N 69°30' E 017°29'0 0.0
2017-Oct-16 03:27N 69°30' E 017°29'0 0.0
2017-Oct-16 03:00N 69°30' E 017°29'0 0.0
2017-Oct-16 02:30N 69°30' E 017°29'0 0.0
2017-Oct-16 02:00N 69°30' E 017°29'0 0.0
2017-Oct-16 01:30N 69°30' E 017°29'0 0.0
2017-Oct-16 00:59N 69°30' E 017°29'0 0.0
2017-Oct-16 00:30N 69°30' E 017°29'0 0.0
2017-Oct-15 23:58N 69°30' E 017°29'0 0.0
2017-Oct-15 23:30N 69°30' E 017°29'0 0.0
2017-Oct-15 22:57N 69°30' E 017°29'0 0.0
2017-Oct-15 22:30N 69°30' E 017°29'0 0.0
2017-Oct-15 21:59N 69°30' E 017°29'0 0.0
2017-Oct-15 21:30N 69°30' E 017°29'0 0.0
2017-Oct-15 20:59N 69°30' E 017°29'0 0.0
2017-Oct-15 20:28N 69°30' E 017°29'0 0.0
2017-Oct-15 20:00N 69°30' E 017°29'0 0.0
2017-Oct-15 19:30N 69°30' E 017°29'0 0.0
2017-Oct-15 19:00N 69°30' E 017°29'0 0.0
2017-Oct-15 18:30N 69°30' E 017°29'0 0.0
2017-Oct-15 18:00N 69°30' E 017°29'0 0.0
2017-Oct-15 17:30N 69°30' E 017°29'0 0.0
2017-Oct-15 17:00N 69°30' E 017°29'0 0.0
2017-Oct-15 16:28N 69°30' E 017°29'0 0.0
2017-Oct-15 15:56N 69°30' E 017°29'0 0.0
2017-Oct-15 15:30N 69°30' E 017°29'0 0.0
2017-Oct-15 15:00N 69°30' E 017°29'0 0.0
2017-Oct-15 14:00N 69°30' E 017°29'0 0.0
2017-Oct-15 13:29N 69°30' E 017°29'0 0.0
2017-Oct-15 12:55N 69°30' E 017°29'0 0.0
2017-Oct-15 12:30N 69°30' E 017°29'0 0.0
2017-Oct-15 11:59N 69°30' E 017°29'0 0.0
2017-Oct-15 11:27N 69°30' E 017°29'0 0.0
2017-Oct-15 11:00N 69°30' E 017°29'0 0.0
2017-Oct-15 10:30N 69°30' E 017°29'0 0.0
2017-Oct-15 09:59N 69°30' E 017°29'0 0.0
2017-Oct-15 09:30N 69°30' E 017°29'0 0.0
2017-Oct-15 09:00N 69°30' E 017°29'0 0.0
2017-Oct-15 08:30N 69°30' E 017°29'0 0.0
2017-Oct-15 07:59N 69°30' E 017°29'0 0.0
2017-Oct-15 07:30N 69°30' E 017°29'0 0.0
2017-Oct-15 07:00N 69°30' E 017°29'0 0.0
2017-Oct-15 06:30N 69°30' E 017°29'0 0.0
2017-Oct-15 06:00N 69°30' E 017°29'0 0.0
2017-Oct-15 05:30N 69°30' E 017°29'0 0.0
2017-Oct-15 05:00N 69°30' E 017°29'0 0.0
2017-Oct-15 04:30N 69°30' E 017°29'0 0.0
2017-Oct-15 03:57N 69°30' E 017°29'0 0.0
2017-Oct-15 03:27N 69°30' E 017°29'0 0.0
2017-Oct-15 03:00N 69°30' E 017°29'0 0.0
2017-Oct-15 02:30N 69°30' E 017°29'0 0.0
2017-Oct-15 01:57N 69°30' E 017°29'0 0.0
2017-Oct-15 01:30N 69°30' E 017°29'0 0.0
2017-Oct-15 00:59N 69°30' E 017°29'0 0.0
2017-Oct-15 00:30N 69°30' E 017°29'0 0.0
2017-Oct-15 00:00N 69°30' E 017°29'0 0.0
2017-Oct-14 23:29N 69°30' E 017°29'0 0.0
2017-Oct-14 23:00N 69°30' E 017°29'0 0.0
2017-Oct-14 22:30N 69°30' E 017°29'0 0.0
2017-Oct-14 22:00N 69°30' E 017°29'0 0.0
2017-Oct-14 21:26N 69°30' E 017°29'0 0.0
2017-Oct-14 20:58N 69°30' E 017°29'0 0.0
2017-Oct-14 20:29N 69°30' E 017°29'0 0.0
2017-Oct-14 20:00N 69°30' E 017°29'0 0.0
2017-Oct-14 19:30N 69°30' E 017°29'0 0.0
2017-Oct-14 19:00N 69°30' E 017°29'0 0.0
2017-Oct-14 18:29N 69°30' E 017°29'0 0.0
2017-Oct-14 18:00N 69°30' E 017°29'0 0.0
2017-Oct-14 17:30N 69°30' E 017°29'0 0.0
2017-Oct-14 17:00N 69°30' E 017°29'0 0.0
2017-Oct-14 16:29N 69°30' E 017°29'0 0.0
2017-Oct-14 15:59N 69°30' E 017°29'0 0.0
2017-Oct-14 15:30N 69°30' E 017°29'0 0.0
2017-Oct-14 14:59N 69°30' E 017°29'0 0.0
2017-Oct-14 14:30N 69°30' E 017°29'0 0.0
2017-Oct-14 14:00N 69°30' E 017°29'0 0.0
2017-Oct-14 13:30N 69°30' E 017°29'0 0.0
2017-Oct-14 13:00N 69°30' E 017°29'0 0.0
2017-Oct-14 12:30N 69°30' E 017°29'0 0.0
2017-Oct-14 11:56N 69°30' E 017°29'0 0.0
2017-Oct-14 11:26N 69°30' E 017°29'0 0.0
2017-Oct-14 10:59N 69°30' E 017°29'0 0.0
2017-Oct-14 10:28N 69°30' E 017°29'0 0.0
2017-Oct-14 10:00N 69°30' E 017°29'0 0.0
2017-Oct-14 09:30N 69°30' E 017°29'0 0.0
2017-Oct-14 09:00N 69°30' E 017°29'0 0.0
2017-Oct-14 08:30N 69°30' E 017°29'0 0.0
2017-Oct-14 07:58N 69°30' E 017°29'0 0.0
2017-Oct-14 07:30N 69°30' E 017°29'0 0.0
2017-Oct-14 06:59N 69°30' E 017°29'0 0.0
2017-Oct-14 06:30N 69°30' E 017°29'0 0.0
2017-Oct-14 06:00N 69°30' E 017°29'0 0.0
2017-Oct-14 05:30N 69°30' E 017°29'0 0.0
2017-Oct-14 04:58N 69°30' E 017°29'0 0.0
2017-Oct-14 04:29N 69°30' E 017°29'0 0.0
2017-Oct-14 03:59N 69°30' E 017°29'0 0.0
2017-Oct-14 03:30N 69°30' E 017°29'0 0.0
2017-Oct-14 03:00N 69°30' E 017°29'0 0.0
2017-Oct-14 02:30N 69°30' E 017°29'0 0.0
2017-Oct-14 02:00N 69°30' E 017°29'0 0.0
2017-Oct-14 01:29N 69°30' E 017°29'0 0.0
2017-Oct-14 01:00N 69°30' E 017°29'0 0.0
2017-Oct-14 00:29N 69°30' E 017°29'0 0.0
2017-Oct-13 23:59N 69°30' E 017°29'0 0.0
2017-Oct-13 23:30N 69°30' E 017°29'0 0.0
2017-Oct-13 23:00N 69°30' E 017°29'0 0.0
2017-Oct-13 22:30N 69°30' E 017°29'0 0.0
2017-Oct-13 22:00N 69°30' E 017°29'0 0.0
2017-Oct-13 21:30N 69°30' E 017°29'0 0.0
2017-Oct-13 20:59N 69°30' E 017°29'0 0.0
2017-Oct-13 20:30N 69°30' E 017°29'0 0.0
2017-Oct-13 20:00N 69°30' E 017°29'0 0.0
2017-Oct-13 19:30N 69°30' E 017°29'0 0.0
2017-Oct-13 19:00N 69°30' E 017°29'0 0.0
2017-Oct-13 18:30N 69°30' E 017°29'0 0.0
2017-Oct-13 18:00N 69°30' E 017°29'0 0.0
2017-Oct-13 17:30N 69°30' E 017°29'0 0.0
2017-Oct-13 17:00N 69°30' E 017°29'0 0.0
2017-Oct-13 16:30N 69°30' E 017°29'0 0.0
2017-Oct-13 16:00N 69°30' E 017°29'0 0.0
2017-Oct-13 15:29N 69°30' E 017°29'0 0.0
2017-Oct-13 15:00N 69°30' E 017°29'0 0.0
2017-Oct-13 14:28N 69°30' E 017°29'0 0.0
2017-Oct-13 13:55N 69°30' E 017°29'0 0.0
2017-Oct-13 13:29N 69°30' E 017°29'0 0.0
2017-Oct-13 12:58N 69°30' E 017°29'0 0.0
2017-Oct-13 12:30N 69°30' E 017°29'0 0.0
2017-Oct-13 12:00N 69°30' E 017°29'0 0.0
2017-Oct-13 11:30N 69°30' E 017°29'0 0.0
2017-Oct-13 11:00N 69°30' E 017°29'0 0.5
2017-Oct-13 10:30N 69°30' E 017°30'0 0.0
2017-Oct-13 09:59N 69°30' E 017°30'2 4.5
2017-Oct-13 09:30N 69°32' E 017°28'3 6.5
2017-Oct-13 09:00N 69°34' E 017°22'3 6.0
2017-Oct-13 08:30N 69°37' E 017°17'0 0.8
2017-Oct-13 08:00N 69°37' E 017°17'9 0.6
2017-Oct-12 16:24N 69°29' E 017°29'0 0.0
2017-Oct-12 16:00N 69°29' E 017°29'0 0.0
2017-Oct-12 15:30N 69°29' E 017°29'0 0.0
2017-Oct-12 15:00N 69°29' E 017°29'0 0.0
2017-Oct-12 14:30N 69°29' E 017°29'0 0.0
2017-Oct-12 14:00N 69°29' E 017°29'0 0.0
2017-Oct-12 13:30N 69°29' E 017°29'0 0.0
2017-Oct-12 13:00N 69°29' E 017°29'0 0.0
2017-Oct-12 12:30N 69°29' E 017°29'0 0.0
2017-Oct-12 12:00N 69°29' E 017°29'0 0.0
2017-Oct-12 11:30N 69°29' E 017°29'0 0.0
2017-Oct-12 11:00N 69°29' E 017°29'0 0.0
2017-Oct-12 10:30N 69°29' E 017°29'0 0.8
2017-Oct-12 10:00N 69°30' E 017°30'3 6.4
2017-Oct-12 09:30N 69°33' E 017°28'3 6.4
2017-Oct-12 09:00N 69°36' E 017°25'2 4.1
2017-Oct-12 08:30N 69°36' E 017°19'1 2.2
2017-Oct-12 08:00N 69°37' E 017°16'0 1.0
2017-Oct-12 07:29N 69°37' E 017°17'1 1.2
2017-Oct-12 07:00N 69°37' E 017°17'0 0.8
2017-Oct-12 06:30N 69°37' E 017°17'1 1.1
2017-Oct-12 06:00N 69°38' E 017°17'1 2.1
2017-Oct-12 05:30N 69°38' E 017°19'0 1.0
2017-Oct-12 05:00N 69°38' E 017°18'1 2.8
2017-Oct-12 04:30N 69°37' E 017°20'4 7.1
2017-Oct-12 04:00N 69°34' E 017°25'3 6.9
2017-Oct-12 03:30N 69°31' E 017°30'2 3.0
2017-Oct-12 03:00N 69°29' E 017°29'0 0.0
2017-Oct-12 02:30N 69°29' E 017°29'0 0.0
2017-Oct-12 02:00N 69°29' E 017°29'0 0.0
2017-Oct-12 01:30N 69°29' E 017°29'0 0.0
2017-Oct-12 01:00N 69°29' E 017°29'0 0.0
2017-Oct-12 00:30N 69°29' E 017°29'0 0.0
2017-Oct-12 00:00N 69°29' E 017°29'0 0.0
2017-Oct-11 23:30N 69°29' E 017°29'0 0.0
2017-Oct-11 23:00N 69°29' E 017°29'0 0.0
2017-Oct-11 22:30N 69°29' E 017°29'0 0.0
2017-Oct-11 22:00N 69°29' E 017°29'0 0.0
2017-Oct-11 21:30N 69°29' E 017°29'0 0.0
2017-Oct-11 21:00N 69°29' E 017°29'0 0.0
2017-Oct-11 20:30N 69°29' E 017°29'0 0.0
2017-Oct-11 20:00N 69°29' E 017°29'0 0.0
2017-Oct-11 19:30N 69°29' E 017°29'0 0.0
2017-Oct-11 18:59N 69°29' E 017°29'0 0.0
2017-Oct-11 18:30N 69°29' E 017°29'0 0.0
2017-Oct-11 18:00N 69°29' E 017°29'0 0.0
2017-Oct-11 17:30N 69°29' E 017°29'0 0.0
2017-Oct-11 17:00N 69°29' E 017°29'0 0.0
2017-Oct-11 00:00N 69°30' E 017°29'0 0.0
2017-Oct-10 23:29N 69°30' E 017°29'0 0.0
2017-Oct-10 22:59N 69°30' E 017°29'0 0.0
2017-Oct-10 22:26N 69°30' E 017°29'0 0.0
2017-Oct-10 22:00N 69°30' E 017°29'0 0.0
2017-Oct-10 21:29N 69°30' E 017°29'0 0.0
2017-Oct-10 21:00N 69°30' E 017°29'0 0.0
2017-Oct-10 20:30N 69°30' E 017°29'0 0.0
2017-Oct-10 19:57N 69°30' E 017°29'0 0.0
2017-Oct-10 19:27N 69°30' E 017°29'0 0.0
2017-Oct-10 18:52N 69°30' E 017°29'0 0.0
2017-Oct-10 18:29N 69°30' E 017°29'0 0.0
2017-Oct-10 17:59N 69°30' E 017°29'0 0.0
2017-Oct-10 17:30N 69°30' E 017°29'1 2.1
2017-Oct-10 16:59N 69°31' E 017°30'3 6.1
2017-Oct-10 16:30N 69°33' E 017°27'3 6.7
2017-Oct-10 16:00N 69°37' E 017°26'1 1.1
2017-Oct-10 15:30N 69°37' E 017°27'1 2.9
2017-Oct-10 15:00N 69°38' E 017°23'3 2.7
2017-Oct-10 14:00N 69°40' E 017°23'  
Track history (hours):
 
Tides and Currents Weather Stations Pressure Air Temp Water Temp Dewpoint Dewpoint Depression Visibility Wind Speed Wind Dir Waves Ship Positions

Haugen

Last reported at 2017-Oct-20 13:30 UTC. Time now 2017-Oct-20 14:34 UTC.
Position N 69°30' E 017°29'.

Length 15 m.

Type: Fishing. MMSI: 257176640.

Date/timePositionNaut miles runAvg speedWind from/ knotsBaromVisibWave heightAir tempDewpointWater temp
2017-Oct-20 13:30N 69°30' E 017°29'0 0.0
2017-Oct-20 12:59N 69°30' E 017°29'0 0.0
2017-Oct-20 12:30N 69°30' E 017°29'0 0.0
2017-Oct-20 12:00N 69°30' E 017°29'0 0.0
2017-Oct-20 11:30N 69°30' E 017°29'0 0.0
2017-Oct-20 11:00N 69°30' E 017°29'0 0.0
2017-Oct-20 10:30N 69°30' E 017°29'0 0.0
2017-Oct-20 09:59N 69°30' E 017°29'0 0.0
2017-Oct-20 09:29N 69°30' E 017°29'0 0.0
2017-Oct-20 09:00N 69°30' E 017°29'0 0.0
2017-Oct-20 08:29N 69°30' E 017°29'0 0.0
2017-Oct-20 08:00N 69°30' E 017°29'0 0.1
2017-Oct-20 07:29N 69°30' E 017°29'0 0.4
2017-Oct-20 07:00N 69°30' E 017°30'3 5.6
2017-Oct-20 06:30N 69°32' E 017°27'3 6.6
2017-Oct-20 06:00N 69°35' E 017°22'3 6.5
2017-Oct-20 05:30N 69°38' E 017°18'0 0.5
2017-Oct-20 05:00N 69°38' E 017°18'1 2.2
2017-Oct-20 04:29N 69°37' E 017°18'0 0.9
2017-Oct-20 04:00N 69°38' E 017°17'1 2.7
2017-Oct-20 03:30N 69°36' E 017°19'3 6.9
2017-Oct-20 03:00N 69°34' E 017°26'3 6.8
2017-Oct-20 02:30N 69°31' E 017°30'1 2.4
2017-Oct-20 02:00N 69°30' E 017°29'0 0.0
2017-Oct-20 01:30N 69°30' E 017°29'0 0.0
2017-Oct-20 01:00N 69°30' E 017°29'0 0.0
2017-Oct-20 00:30N 69°30' E 017°29'0 0.0
2017-Oct-19 23:59N 69°30' E 017°29'0 0.0
2017-Oct-19 23:30N 69°30' E 017°29'0 0.0
2017-Oct-19 23:00N 69°30' E 017°29'0 0.0
2017-Oct-19 22:30N 69°30' E 017°29'0 0.0
2017-Oct-19 22:00N 69°30' E 017°29'0 0.0
2017-Oct-19 21:30N 69°30' E 017°29'0 0.0
2017-Oct-19 21:00N 69°30' E 017°29'0 0.0
2017-Oct-19 20:30N 69°30' E 017°29'0 0.0
2017-Oct-19 20:00N 69°30' E 017°29'0 0.0
2017-Oct-19 19:29N 69°30' E 017°29'0 0.0
2017-Oct-19 19:00N 69°30' E 017°29'0 0.0
2017-Oct-19 18:30N 69°30' E 017°29'0 0.0
2017-Oct-19 18:00N 69°30' E 017°29'0 0.0
2017-Oct-19 17:30N 69°30' E 017°29'0 0.0
2017-Oct-19 17:00N 69°30' E 017°29'0 0.0
2017-Oct-19 16:30N 69°30' E 017°29'0 0.0
2017-Oct-19 16:00N 69°30' E 017°29'0 0.0
2017-Oct-19 15:30N 69°30' E 017°29'1 1.4
2017-Oct-19 15:00N 69°30' E 017°30'3 6.3
2017-Oct-19 14:30N 69°33' E 017°27'3 6.2
2017-Oct-19 13:59N 69°36' E 017°24'0 0.4
2017-Oct-19 13:30N 69°36' E 017°23'0 0.8
2017-Oct-19 13:00N 69°36' E 017°23'1 1.1
2017-Oct-19 12:30N 69°36' E 017°24'2 3.2
2017-Oct-19 11:59N 69°37' E 017°26'1 2.1
2017-Oct-19 11:30N 69°37' E 017°23'3 6.3
2017-Oct-19 11:00N 69°37' E 017°15'1 1.3
2017-Oct-19 10:30N 69°36' E 017°13'0 0.7
2017-Oct-19 10:00N 69°36' E 017°13'2 4.0
2017-Oct-19 09:30N 69°38' E 017°16'0 0.8
2017-Oct-19 09:00N 69°37' E 017°15'0 0.9
2017-Oct-19 08:30N 69°37' E 017°14'2 4.2
2017-Oct-19 08:00N 69°39' E 017°17'0 0.4
2017-Oct-19 07:30N 69°39' E 017°17'1 1.0
2017-Oct-19 07:00N 69°38' E 017°16'0 1.0
2017-Oct-19 06:30N 69°38' E 017°16'1 2.1
2017-Oct-19 06:00N 69°38' E 017°19'3 5.5
2017-Oct-19 05:30N 69°36' E 017°23'3 5.3
2017-Oct-19 05:00N 69°33' E 017°26'2 4.9
2017-Oct-19 04:29N 69°31' E 017°30'2 3.4
2017-Oct-19 03:59N 69°30' E 017°29'0 0.0
2017-Oct-19 03:30N 69°30' E 017°29'0 0.0
2017-Oct-19 02:59N 69°30' E 017°29'0 0.0
2017-Oct-19 02:30N 69°30' E 017°29'0 0.0
2017-Oct-19 02:00N 69°30' E 017°29'0 0.0
2017-Oct-19 01:29N 69°30' E 017°29'0 0.0
2017-Oct-19 00:58N 69°30' E 017°29'0 0.0
2017-Oct-19 00:30N 69°30' E 017°29'0 0.0
2017-Oct-18 23:59N 69°30' E 017°29'0 0.0
2017-Oct-18 23:30N 69°30' E 017°29'0 0.0
2017-Oct-18 23:00N 69°30' E 017°29'0 0.0
2017-Oct-18 22:30N 69°30' E 017°29'0 0.0
2017-Oct-18 21:59N 69°30' E 017°29'0 0.0
2017-Oct-18 21:30N 69°30' E 017°29'0 0.0
2017-Oct-18 21:00N 69°30' E 017°29'0 0.0
2017-Oct-18 20:30N 69°30' E 017°29'0 0.0
2017-Oct-18 20:00N 69°30' E 017°29'0 0.0
2017-Oct-18 19:29N 69°30' E 017°29'0 0.0
2017-Oct-18 19:00N 69°30' E 017°29'0 0.0
2017-Oct-18 18:30N 69°30' E 017°29'0 0.0
2017-Oct-18 17:59N 69°30' E 017°29'0 0.0
2017-Oct-18 17:30N 69°30' E 017°29'0 0.0
2017-Oct-18 16:59N 69°30' E 017°29'0 0.0
2017-Oct-18 16:29N 69°30' E 017°29'0 0.0
2017-Oct-18 15:59N 69°30' E 017°29'0 0.0
2017-Oct-18 15:30N 69°30' E 017°29'0 0.0
2017-Oct-18 15:00N 69°30' E 017°29'0 0.0
2017-Oct-18 14:00N 69°30' E 017°29'0 0.0
2017-Oct-18 13:29N 69°30' E 017°29'0 0.4
2017-Oct-18 13:00N 69°29' E 017°29'0 0.0
2017-Oct-18 12:30N 69°29' E 017°29'0 0.0
2017-Oct-18 12:00N 69°29' E 017°29'0 0.0
2017-Oct-18 11:29N 69°29' E 017°29'0 0.0
2017-Oct-18 11:00N 69°29' E 017°29'0 0.0
2017-Oct-18 10:30N 69°29' E 017°29'0 0.0
2017-Oct-18 09:59N 69°29' E 017°29'0 0.0
2017-Oct-18 09:30N 69°29' E 017°29'0 0.0
2017-Oct-18 09:00N 69°29' E 017°29'0 0.0
2017-Oct-18 08:30N 69°29' E 017°29'0 0.0
2017-Oct-18 08:00N 69°29' E 017°29'0 0.0
2017-Oct-18 07:30N 69°29' E 017°29'0 0.0
2017-Oct-18 07:00N 69°29' E 017°29'0 0.0
2017-Oct-18 06:30N 69°29' E 017°29'0 0.0
2017-Oct-18 06:00N 69°29' E 017°29'0 0.0
2017-Oct-18 05:30N 69°29' E 017°29'0 0.0
2017-Oct-18 05:00N 69°29' E 017°29'0 0.0
2017-Oct-18 04:30N 69°29' E 017°29'0 0.0
2017-Oct-18 04:00N 69°29' E 017°29'0 0.0
2017-Oct-18 03:30N 69°29' E 017°29'0 0.0
2017-Oct-18 02:59N 69°29' E 017°29'0 0.0
2017-Oct-18 02:30N 69°29' E 017°29'0 0.0
2017-Oct-18 02:00N 69°29' E 017°29'0 0.0
2017-Oct-18 01:30N 69°29' E 017°29'0 0.0
2017-Oct-18 01:00N 69°29' E 017°29'0 0.0
2017-Oct-18 00:30N 69°29' E 017°29'0 0.0
2017-Oct-18 00:00N 69°29' E 017°29'0 0.0
2017-Oct-17 23:30N 69°29' E 017°29'0 0.0
2017-Oct-17 23:00N 69°29' E 017°29'0 0.0
2017-Oct-17 22:30N 69°29' E 017°29'0 0.0
2017-Oct-17 22:00N 69°29' E 017°29'0 0.0
2017-Oct-17 21:30N 69°29' E 017°29'0 0.0
2017-Oct-17 21:00N 69°29' E 017°29'0 0.0
2017-Oct-17 20:30N 69°29' E 017°29'0 0.0
2017-Oct-17 20:00N 69°29' E 017°29'0 0.0
2017-Oct-17 19:29N 69°29' E 017°29'0 0.0
2017-Oct-17 19:00N 69°29' E 017°29'0 0.0
2017-Oct-17 18:30N 69°29' E 017°29'0 0.0
2017-Oct-17 18:00N 69°29' E 017°29'0 0.0
2017-Oct-17 17:30N 69°29' E 017°29'0 0.0
2017-Oct-17 17:00N 69°29' E 017°29'0 0.0
2017-Oct-17 16:30N 69°29' E 017°29'0 0.0
2017-Oct-17 16:00N 69°29' E 017°29'0 0.0
2017-Oct-17 15:30N 69°29' E 017°29'0 0.0
2017-Oct-17 15:00N 69°29' E 017°29'0 0.0
2017-Oct-17 14:30N 69°29' E 017°29'0 0.0
2017-Oct-17 14:00N 69°29' E 017°29'0 0.0
2017-Oct-17 13:30N 69°29' E 017°29'0 0.0
2017-Oct-17 13:00N 69°29' E 017°29'0 0.0
2017-Oct-17 12:30N 69°29' E 017°29'0 0.0
2017-Oct-17 12:00N 69°29' E 017°29'0 0.0
2017-Oct-17 11:29N 69°29' E 017°29'0 0.0
2017-Oct-17 10:59N 69°29' E 017°29'0 0.0
2017-Oct-17 10:30N 69°29' E 017°29'0 0.0
2017-Oct-17 10:00N 69°29' E 017°29'0 0.0
2017-Oct-17 09:30N 69°29' E 017°29'0 0.0
2017-Oct-17 09:00N 69°29' E 017°29'0 0.0
2017-Oct-17 08:30N 69°29' E 017°29'0 0.0
2017-Oct-17 08:00N 69°29' E 017°29'0 0.4
2017-Oct-17 07:30N 69°30' E 017°29'0 0.5
2017-Oct-17 07:00N 69°30' E 017°30'0 0.0
2017-Oct-17 06:30N 69°30' E 017°30'0 0.0
2017-Oct-17 06:00N 69°30' E 017°30'2 3.9
2017-Oct-17 05:30N 69°31' E 017°33'0 0.6
2017-Oct-17 05:00N 69°31' E 017°33'1 2.2
2017-Oct-17 04:30N 69°30' E 017°30'1 1.7
2017-Oct-17 04:00N 69°30' E 017°29'0 0.0
2017-Oct-17 03:30N 69°30' E 017°29'0 0.0
2017-Oct-17 03:00N 69°30' E 017°29'0 0.0
2017-Oct-17 02:29N 69°30' E 017°29'0 0.0
2017-Oct-17 02:00N 69°30' E 017°29'0 0.0
2017-Oct-17 01:29N 69°30' E 017°29'0 0.0
2017-Oct-17 01:00N 69°30' E 017°29'0 0.0
2017-Oct-17 00:30N 69°30' E 017°29'0 0.0
2017-Oct-17 00:00N 69°30' E 017°29'0 0.0
2017-Oct-16 23:30N 69°30' E 017°29'0 0.0
2017-Oct-16 22:59N 69°30' E 017°29'0 0.0
2017-Oct-16 22:28N 69°30' E 017°29'0 0.0
2017-Oct-16 21:59N 69°30' E 017°29'0 0.0
2017-Oct-16 21:29N 69°30' E 017°29'0 0.0
2017-Oct-16 21:00N 69°30' E 017°29'0 0.0
2017-Oct-16 20:30N 69°30' E 017°29'0 0.0
2017-Oct-16 19:59N 69°30' E 017°29'0 0.0
2017-Oct-16 19:30N 69°30' E 017°29'0 0.0
2017-Oct-16 19:00N 69°30' E 017°29'0 0.0
2017-Oct-16 18:30N 69°30' E 017°29'0 0.0
2017-Oct-16 18:00N 69°30' E 017°29'0 0.0
2017-Oct-16 17:30N 69°30' E 017°29'0 0.0
2017-Oct-16 16:58N 69°30' E 017°29'0 0.6
2017-Oct-16 16:30N 69°30' E 017°30'2 4.7
2017-Oct-16 16:00N 69°32' E 017°28'3 7.0
2017-Oct-16 15:30N 69°35' E 017°25'1 1.6
2017-Oct-16 15:00N 69°36' E 017°23'0 0.9
2017-Oct-16 14:30N 69°36' E 017°24'3 2.7
2017-Oct-16 13:30N 69°38' E 017°19'1 1.5
2017-Oct-16 13:00N 69°39' E 017°18'1 1.5
2017-Oct-16 12:30N 69°38' E 017°16'0 0.9
2017-Oct-16 12:00N 69°39' E 017°17'1 2.6
2017-Oct-16 11:30N 69°38' E 017°16'1 2.5
2017-Oct-16 11:00N 69°37' E 017°14'3 6.8
2017-Oct-16 10:30N 69°35' E 017°21'3 6.7
2017-Oct-16 10:00N 69°32' E 017°28'2 4.9
2017-Oct-16 09:30N 69°30' E 017°29'0 0.0
2017-Oct-16 08:59N 69°30' E 017°29'0 0.0
2017-Oct-16 08:30N 69°30' E 017°29'0 0.0
2017-Oct-16 08:00N 69°30' E 017°29'0 0.0
2017-Oct-16 07:30N 69°30' E 017°29'0 0.0
2017-Oct-16 06:58N 69°30' E 017°29'0 0.0
2017-Oct-16 06:30N 69°30' E 017°29'0 0.0
2017-Oct-16 06:00N 69°30' E 017°29'0 0.0
2017-Oct-16 05:25N 69°30' E 017°29'0 0.0
2017-Oct-16 04:56N 69°30' E 017°29'0 0.0
2017-Oct-16 04:26N 69°30' E 017°29'0 0.0
2017-Oct-16 04:00N 69°30' E 017°29'0 0.0
2017-Oct-16 03:27N 69°30' E 017°29'0 0.0
2017-Oct-16 03:00N 69°30' E 017°29'0 0.0
2017-Oct-16 02:30N 69°30' E 017°29'0 0.0
2017-Oct-16 02:00N 69°30' E 017°29'0 0.0
2017-Oct-16 01:30N 69°30' E 017°29'0 0.0
2017-Oct-16 00:59N 69°30' E 017°29'0 0.0
2017-Oct-16 00:30N 69°30' E 017°29'0 0.0
2017-Oct-15 23:58N 69°30' E 017°29'0 0.0
2017-Oct-15 23:30N 69°30' E 017°29'0 0.0
2017-Oct-15 22:57N 69°30' E 017°29'0 0.0
2017-Oct-15 22:30N 69°30' E 017°29'0 0.0
2017-Oct-15 21:59N 69°30' E 017°29'0 0.0
2017-Oct-15 21:30N 69°30' E 017°29'0 0.0
2017-Oct-15 20:59N 69°30' E 017°29'0 0.0
2017-Oct-15 20:28N 69°30' E 017°29'0 0.0
2017-Oct-15 20:00N 69°30' E 017°29'0 0.0
2017-Oct-15 19:30N 69°30' E 017°29'0 0.0
2017-Oct-15 19:00N 69°30' E 017°29'0 0.0
2017-Oct-15 18:30N 69°30' E 017°29'0 0.0
2017-Oct-15 18:00N 69°30' E 017°29'0 0.0
2017-Oct-15 17:30N 69°30' E 017°29'0 0.0
2017-Oct-15 17:00N 69°30' E 017°29'0 0.0
2017-Oct-15 16:28N 69°30' E 017°29'0 0.0
2017-Oct-15 15:56N 69°30' E 017°29'0 0.0
2017-Oct-15 15:30N 69°30' E 017°29'0 0.0
2017-Oct-15 15:00N 69°30' E 017°29'0 0.0
2017-Oct-15 14:00N 69°30' E 017°29'0 0.0
2017-Oct-15 13:29N 69°30' E 017°29'0 0.0
2017-Oct-15 12:55N 69°30' E 017°29'0 0.0
2017-Oct-15 12:30N 69°30' E 017°29'0 0.0
2017-Oct-15 11:59N 69°30' E 017°29'0 0.0
2017-Oct-15 11:27N 69°30' E 017°29'0 0.0
2017-Oct-15 11:00N 69°30' E 017°29'0 0.0
2017-Oct-15 10:30N 69°30' E 017°29'0 0.0
2017-Oct-15 09:59N 69°30' E 017°29'0 0.0
2017-Oct-15 09:30N 69°30' E 017°29'0 0.0
2017-Oct-15 09:00N 69°30' E 017°29'0 0.0
2017-Oct-15 08:30N 69°30' E 017°29'0 0.0
2017-Oct-15 07:59N 69°30' E 017°29'0 0.0
2017-Oct-15 07:30N 69°30' E 017°29'0 0.0
2017-Oct-15 07:00N 69°30' E 017°29'0 0.0
2017-Oct-15 06:30N 69°30' E 017°29'0 0.0
2017-Oct-15 06:00N 69°30' E 017°29'0 0.0
2017-Oct-15 05:30N 69°30' E 017°29'0 0.0
2017-Oct-15 05:00N 69°30' E 017°29'0 0.0
2017-Oct-15 04:30N 69°30' E 017°29'0 0.0
2017-Oct-15 03:57N 69°30' E 017°29'0 0.0
2017-Oct-15 03:27N 69°30' E 017°29'0 0.0
2017-Oct-15 03:00N 69°30' E 017°29'0 0.0
2017-Oct-15 02:30N 69°30' E 017°29'0 0.0
2017-Oct-15 01:57N 69°30' E 017°29'0 0.0
2017-Oct-15 01:30N 69°30' E 017°29'0 0.0
2017-Oct-15 00:59N 69°30' E 017°29'0 0.0
2017-Oct-15 00:30N 69°30' E 017°29'0 0.0
2017-Oct-15 00:00N 69°30' E 017°29'0 0.0
2017-Oct-14 23:29N 69°30' E 017°29'0 0.0
2017-Oct-14 23:00N 69°30' E 017°29'0 0.0
2017-Oct-14 22:30N 69°30' E 017°29'0 0.0
2017-Oct-14 22:00N 69°30' E 017°29'0 0.0
2017-Oct-14 21:26N 69°30' E 017°29'0 0.0
2017-Oct-14 20:58N 69°30' E 017°29'0 0.0
2017-Oct-14 20:29N 69°30' E 017°29'0 0.0
2017-Oct-14 20:00N 69°30' E 017°29'0 0.0
2017-Oct-14 19:30N 69°30' E 017°29'0 0.0
2017-Oct-14 19:00N 69°30' E 017°29'0 0.0
2017-Oct-14 18:29N 69°30' E 017°29'0 0.0
2017-Oct-14 18:00N 69°30' E 017°29'0 0.0
2017-Oct-14 17:30N 69°30' E 017°29'0 0.0
2017-Oct-14 17:00N 69°30' E 017°29'0 0.0
2017-Oct-14 16:29N 69°30' E 017°29'0 0.0
2017-Oct-14 15:59N 69°30' E 017°29'0 0.0
2017-Oct-14 15:30N 69°30' E 017°29'0 0.0
2017-Oct-14 14:59N 69°30' E 017°29'0 0.0
2017-Oct-14 14:30N 69°30' E 017°29'0 0.0
2017-Oct-14 14:00N 69°30' E 017°29'0 0.0
2017-Oct-14 13:30N 69°30' E 017°29'0 0.0
2017-Oct-14 13:00N 69°30' E 017°29'0 0.0
2017-Oct-14 12:30N 69°30' E 017°29'0 0.0
2017-Oct-14 11:56N 69°30' E 017°29'0 0.0
2017-Oct-14 11:26N 69°30' E 017°29'0 0.0
2017-Oct-14 10:59N 69°30' E 017°29'0 0.0
2017-Oct-14 10:28N 69°30' E 017°29'0 0.0
2017-Oct-14 10:00N 69°30' E 017°29'0 0.0
2017-Oct-14 09:30N 69°30' E 017°29'0 0.0
2017-Oct-14 09:00N 69°30' E 017°29'0 0.0
2017-Oct-14 08:30N 69°30' E 017°29'0 0.0
2017-Oct-14 07:58N 69°30' E 017°29'0 0.0
2017-Oct-14 07:30N 69°30' E 017°29'0 0.0
2017-Oct-14 06:59N 69°30' E 017°29'0 0.0
2017-Oct-14 06:30N 69°30' E 017°29'0 0.0
2017-Oct-14 06:00N 69°30' E 017°29'0 0.0
2017-Oct-14 05:30N 69°30' E 017°29'0 0.0
2017-Oct-14 04:58N 69°30' E 017°29'0 0.0
2017-Oct-14 04:29N 69°30' E 017°29'0 0.0
2017-Oct-14 03:59N 69°30' E 017°29'0 0.0
2017-Oct-14 03:30N 69°30' E 017°29'0 0.0
2017-Oct-14 03:00N 69°30' E 017°29'0 0.0
2017-Oct-14 02:30N 69°30' E 017°29'0 0.0
2017-Oct-14 02:00N 69°30' E 017°29'0 0.0
2017-Oct-14 01:29N 69°30' E 017°29'0 0.0
2017-Oct-14 01:00N 69°30' E 017°29'0 0.0
2017-Oct-14 00:29N 69°30' E 017°29'0 0.0
2017-Oct-13 23:59N 69°30' E 017°29'0 0.0
2017-Oct-13 23:30N 69°30' E 017°29'0 0.0
2017-Oct-13 23:00N 69°30' E 017°29'0 0.0
2017-Oct-13 22:30N 69°30' E 017°29'0 0.0
2017-Oct-13 22:00N 69°30' E 017°29'0 0.0
2017-Oct-13 21:30N 69°30' E 017°29'0 0.0
2017-Oct-13 20:59N 69°30' E 017°29'0 0.0
2017-Oct-13 20:30N 69°30' E 017°29'0 0.0
2017-Oct-13 20:00N 69°30' E 017°29'0 0.0
2017-Oct-13 19:30N 69°30' E 017°29'0 0.0
2017-Oct-13 19:00N 69°30' E 017°29'0 0.0
2017-Oct-13 18:30N 69°30' E 017°29'0 0.0
2017-Oct-13 18:00N 69°30' E 017°29'0 0.0
2017-Oct-13 17:30N 69°30' E 017°29'0 0.0
2017-Oct-13 17:00N 69°30' E 017°29'0 0.0
2017-Oct-13 16:30N 69°30' E 017°29'0 0.0
2017-Oct-13 16:00N 69°30' E 017°29'0 0.0
2017-Oct-13 15:29N 69°30' E 017°29'0 0.0
2017-Oct-13 15:00N 69°30' E 017°29'0 0.0
2017-Oct-13 14:28N 69°30' E 017°29'0 0.0
2017-Oct-13 13:55N 69°30' E 017°29'0 0.0
2017-Oct-13 13:29N 69°30' E 017°29'0 0.0
2017-Oct-13 12:58N 69°30' E 017°29'0 0.0
2017-Oct-13 12:30N 69°30' E 017°29'0 0.0
2017-Oct-13 12:00N 69°30' E 017°29'0 0.0
2017-Oct-13 11:30N 69°30' E 017°29'0 0.0
2017-Oct-13 11:00N 69°30' E 017°29'0 0.5
2017-Oct-13 10:30N 69°30' E 017°30'0 0.0
2017-Oct-13 09:59N 69°30' E 017°30'2 4.5
2017-Oct-13 09:30N 69°32' E 017°28'3 6.5
2017-Oct-13 09:00N 69°34' E 017°22'3 6.0
2017-Oct-13 08:30N 69°37' E 017°17'0 0.8
2017-Oct-13 08:00N 69°37' E 017°17'9 0.6
2017-Oct-12 16:24N 69°29' E 017°29'0 0.0
2017-Oct-12 16:00N 69°29' E 017°29'0 0.0
2017-Oct-12 15:30N 69°29' E 017°29'0 0.0
2017-Oct-12 15:00N 69°29' E 017°29'0 0.0
2017-Oct-12 14:30N 69°29' E 017°29'0 0.0
2017-Oct-12 14:00N 69°29' E 017°29'0 0.0
2017-Oct-12 13:30N 69°29' E 017°29'0 0.0
2017-Oct-12 13:00N 69°29' E 017°29'0 0.0
2017-Oct-12 12:30N 69°29' E 017°29'0 0.0
2017-Oct-12 12:00N 69°29' E 017°29'0 0.0
2017-Oct-12 11:30N 69°29' E 017°29'0 0.0
2017-Oct-12 11:00N 69°29' E 017°29'0 0.0
2017-Oct-12 10:30N 69°29' E 017°29'0 0.8
2017-Oct-12 10:00N 69°30' E 017°30'3 6.4
2017-Oct-12 09:30N 69°33' E 017°28'3 6.4
2017-Oct-12 09:00N 69°36' E 017°25'2 4.1
2017-Oct-12 08:30N 69°36' E 017°19'1 2.2
2017-Oct-12 08:00N 69°37' E 017°16'0 1.0
2017-Oct-12 07:29N 69°37' E 017°17'1 1.2
2017-Oct-12 07:00N 69°37' E 017°17'0 0.8
2017-Oct-12 06:30N 69°37' E 017°17'1 1.1
2017-Oct-12 06:00N 69°38' E 017°17'1 2.1
2017-Oct-12 05:30N 69°38' E 017°19'0 1.0
2017-Oct-12 05:00N 69°38' E 017°18'1 2.8
2017-Oct-12 04:30N 69°37' E 017°20'4 7.1
2017-Oct-12 04:00N 69°34' E 017°25'3 6.9
2017-Oct-12 03:30N 69°31' E 017°30'2 3.0
2017-Oct-12 03:00N 69°29' E 017°29'0 0.0
2017-Oct-12 02:30N 69°29' E 017°29'0 0.0
2017-Oct-12 02:00N 69°29' E 017°29'0 0.0
2017-Oct-12 01:30N 69°29' E 017°29'0 0.0
2017-Oct-12 01:00N 69°29' E 017°29'0 0.0
2017-Oct-12 00:30N 69°29' E 017°29'0 0.0
2017-Oct-12 00:00N 69°29' E 017°29'0 0.0
2017-Oct-11 23:30N 69°29' E 017°29'0 0.0
2017-Oct-11 23:00N 69°29' E 017°29'0 0.0
2017-Oct-11 22:30N 69°29' E 017°29'0 0.0
2017-Oct-11 22:00N 69°29' E 017°29'0 0.0
2017-Oct-11 21:30N 69°29' E 017°29'0 0.0
2017-Oct-11 21:00N 69°29' E 017°29'0 0.0
2017-Oct-11 20:30N 69°29' E 017°29'0 0.0
2017-Oct-11 20:00N 69°29' E 017°29'0 0.0
2017-Oct-11 19:30N 69°29' E 017°29'0 0.0
2017-Oct-11 18:59N 69°29' E 017°29'0 0.0
2017-Oct-11 18:30N 69°29' E 017°29'0 0.0
2017-Oct-11 18:00N 69°29' E 017°29'0 0.0
2017-Oct-11 17:30N 69°29' E 017°29'0 0.0
2017-Oct-11 17:00N 69°29' E 017°29'0 0.0
2017-Oct-11 00:00N 69°30' E 017°29'0 0.0
2017-Oct-10 23:29N 69°30' E 017°29'0 0.0
2017-Oct-10 22:59N 69°30' E 017°29'0 0.0
2017-Oct-10 22:26N 69°30' E 017°29'0 0.0
2017-Oct-10 22:00N 69°30' E 017°29'0 0.0
2017-Oct-10 21:29N 69°30' E 017°29'0 0.0
2017-Oct-10 21:00N 69°30' E 017°29'0 0.0
2017-Oct-10 20:30N 69°30' E 017°29'0 0.0
2017-Oct-10 19:57N 69°30' E 017°29'0 0.0
2017-Oct-10 19:27N 69°30' E 017°29'0 0.0
2017-Oct-10 18:52N 69°30' E 017°29'0 0.0
2017-Oct-10 18:29N 69°30' E 017°29'0 0.0
2017-Oct-10 17:59N 69°30' E 017°29'0 0.0
2017-Oct-10 17:30N 69°30' E 017°29'1 2.1
2017-Oct-10 16:59N 69°31' E 017°30'3 6.1
2017-Oct-10 16:30N 69°33' E 017°27'3 6.7
2017-Oct-10 16:00N 69°37' E 017°26'1 1.1
2017-Oct-10 15:30N 69°37' E 017°27'1 2.9
2017-Oct-10 15:00N 69°38' E 017°23'3 2.7
2017-Oct-10 14:00N 69°40' E 017°23'  

Dump ship's entire track history